sensor_id;sensor_type;location;lat;lon;timestamp;P1;durP1;ratioP1;P2;durP2;ratioP2
32228;SDS011;18717;48.034;11.186;2023-04-19T00:02:21;26.33;;;19.38;;
32228;SDS011;18717;48.034;11.186;2023-04-19T00:04:50;23.58;;;18.65;;
32228;SDS011;18717;48.034;11.186;2023-04-19T00:07:18;26.35;;;19.33;;
32228;SDS011;18717;48.034;11.186;2023-04-19T00:09:46;19.95;;;17.60;;
32228;SDS011;18717;48.034;11.186;2023-04-19T00:12:14;27.42;;;20.15;;
32228;SDS011;18717;48.034;11.186;2023-04-19T00:14:41;24.15;;;17.88;;
32228;SDS011;18717;48.034;11.186;2023-04-19T00:17:09;26.25;;;18.63;;
32228;SDS011;18717;48.034;11.186;2023-04-19T00:19:37;25.27;;;18.83;;
32228;SDS011;18717;48.034;11.186;2023-04-19T00:22:06;23.98;;;18.08;;
32228;SDS011;18717;48.034;11.186;2023-04-19T00:24:34;27.25;;;19.98;;
32228;SDS011;18717;48.034;11.186;2023-04-19T00:27:01;27.30;;;19.25;;
32228;SDS011;18717;48.034;11.186;2023-04-19T00:29:29;25.63;;;18.05;;
32228;SDS011;18717;48.034;11.186;2023-04-19T00:31:57;24.30;;;19.27;;
32228;SDS011;18717;48.034;11.186;2023-04-19T00:34:25;22.23;;;18.30;;
32228;SDS011;18717;48.034;11.186;2023-04-19T00:36:52;24.65;;;19.27;;
32228;SDS011;18717;48.034;11.186;2023-04-19T00:39:21;26.30;;;19.83;;
32228;SDS011;18717;48.034;11.186;2023-04-19T00:41:49;26.92;;;19.40;;
32228;SDS011;18717;48.034;11.186;2023-04-19T00:44:18;27.58;;;18.80;;
32228;SDS011;18717;48.034;11.186;2023-04-19T00:46:46;25.25;;;18.95;;
32228;SDS011;18717;48.034;11.186;2023-04-19T00:49:13;24.40;;;17.83;;
32228;SDS011;18717;48.034;11.186;2023-04-19T00:51:41;30.85;;;20.70;;
32228;SDS011;18717;48.034;11.186;2023-04-19T00:54:09;27.98;;;19.15;;
32228;SDS011;18717;48.034;11.186;2023-04-19T00:56:38;26.98;;;19.77;;
32228;SDS011;18717;48.034;11.186;2023-04-19T00:59:06;27.98;;;19.48;;
32228;SDS011;18717;48.034;11.186;2023-04-19T01:01:34;26.23;;;20.30;;
32228;SDS011;18717;48.034;11.186;2023-04-19T01:04:03;26.80;;;19.10;;
32228;SDS011;18717;48.034;11.186;2023-04-19T01:06:31;26.63;;;21.45;;
32228;SDS011;18717;48.034;11.186;2023-04-19T01:09:00;24.02;;;19.73;;
32228;SDS011;18717;48.034;11.186;2023-04-19T01:11:27;26.52;;;19.02;;
32228;SDS011;18717;48.034;11.186;2023-04-19T01:13:57;28.80;;;21.13;;
32228;SDS011;18717;48.034;11.186;2023-04-19T01:16:25;21.83;;;18.00;;
32228;SDS011;18717;48.034;11.186;2023-04-19T01:18:53;29.33;;;18.83;;
32228;SDS011;18717;48.034;11.186;2023-04-19T01:21:21;27.40;;;18.92;;
32228;SDS011;18717;48.034;11.186;2023-04-19T01:23:50;24.83;;;18.58;;
32228;SDS011;18717;48.034;11.186;2023-04-19T01:26:18;25.13;;;19.08;;
32228;SDS011;18717;48.034;11.186;2023-04-19T01:28:46;24.75;;;20.33;;
32228;SDS011;18717;48.034;11.186;2023-04-19T01:31:14;24.15;;;18.50;;
32228;SDS011;18717;48.034;11.186;2023-04-19T01:33:42;24.48;;;19.48;;
32228;SDS011;18717;48.034;11.186;2023-04-19T01:36:10;23.83;;;19.88;;
32228;SDS011;18717;48.034;11.186;2023-04-19T01:38:38;27.77;;;19.88;;
32228;SDS011;18717;48.034;11.186;2023-04-19T01:41:07;27.60;;;19.58;;
32228;SDS011;18717;48.034;11.186;2023-04-19T01:43:34;26.15;;;19.95;;
32228;SDS011;18717;48.034;11.186;2023-04-19T01:46:02;24.05;;;19.17;;
32228;SDS011;18717;48.034;11.186;2023-04-19T01:48:30;23.98;;;19.10;;
32228;SDS011;18717;48.034;11.186;2023-04-19T01:50:57;26.10;;;19.88;;
32228;SDS011;18717;48.034;11.186;2023-04-19T01:53:25;30.23;;;20.63;;
32228;SDS011;18717;48.034;11.186;2023-04-19T01:55:53;28.30;;;20.88;;
32228;SDS011;18717;48.034;11.186;2023-04-19T01:58:22;30.05;;;20.40;;
32228;SDS011;18717;48.034;11.186;2023-04-19T02:00:50;26.42;;;21.73;;
32228;SDS011;18717;48.034;11.186;2023-04-19T02:03:18;30.23;;;22.27;;
32228;SDS011;18717;48.034;11.186;2023-04-19T02:05:46;25.00;;;20.30;;
32228;SDS011;18717;48.034;11.186;2023-04-19T02:08:13;29.88;;;21.83;;
32228;SDS011;18717;48.034;11.186;2023-04-19T02:10:41;27.00;;;22.05;;
32228;SDS011;18717;48.034;11.186;2023-04-19T02:13:09;30.58;;;21.88;;
32228;SDS011;18717;48.034;11.186;2023-04-19T02:15:37;27.50;;;21.67;;
32228;SDS011;18717;48.034;11.186;2023-04-19T02:18:05;26.35;;;20.17;;
32228;SDS011;18717;48.034;11.186;2023-04-19T02:20:33;26.17;;;20.10;;
32228;SDS011;18717;48.034;11.186;2023-04-19T02:23:01;27.58;;;21.00;;
32228;SDS011;18717;48.034;11.186;2023-04-19T02:25:28;25.63;;;20.92;;
32228;SDS011;18717;48.034;11.186;2023-04-19T02:27:56;27.83;;;21.17;;
32228;SDS011;18717;48.034;11.186;2023-04-19T02:30:24;30.52;;;22.55;;
32228;SDS011;18717;48.034;11.186;2023-04-19T02:32:53;28.40;;;20.98;;
32228;SDS011;18717;48.034;11.186;2023-04-19T02:35:21;30.45;;;21.77;;
32228;SDS011;18717;48.034;11.186;2023-04-19T02:37:48;34.00;;;22.58;;
32228;SDS011;18717;48.034;11.186;2023-04-19T02:40:16;27.15;;;22.48;;
32228;SDS011;18717;48.034;11.186;2023-04-19T02:42:44;30.05;;;22.65;;
32228;SDS011;18717;48.034;11.186;2023-04-19T02:45:12;27.13;;;20.52;;
32228;SDS011;18717;48.034;11.186;2023-04-19T02:47:40;30.65;;;22.10;;
32228;SDS011;18717;48.034;11.186;2023-04-19T02:50:09;32.15;;;22.58;;
32228;SDS011;18717;48.034;11.186;2023-04-19T02:52:37;26.83;;;20.98;;
32228;SDS011;18717;48.034;11.186;2023-04-19T02:55:05;29.30;;;21.05;;
32228;SDS011;18717;48.034;11.186;2023-04-19T02:57:33;28.40;;;21.50;;
32228;SDS011;18717;48.034;11.186;2023-04-19T03:00:00;28.73;;;21.33;;
32228;SDS011;18717;48.034;11.186;2023-04-19T03:02:30;31.42;;;23.60;;
32228;SDS011;18717;48.034;11.186;2023-04-19T03:04:58;30.95;;;22.50;;
32228;SDS011;18717;48.034;11.186;2023-04-19T03:07:27;33.78;;;23.25;;
32228;SDS011;18717;48.034;11.186;2023-04-19T03:09:55;30.55;;;23.58;;
32228;SDS011;18717;48.034;11.186;2023-04-19T03:12:22;27.42;;;21.77;;
32228;SDS011;18717;48.034;11.186;2023-04-19T03:14:50;29.38;;;21.85;;
32228;SDS011;18717;48.034;11.186;2023-04-19T03:17:18;31.70;;;22.30;;
32228;SDS011;18717;48.034;11.186;2023-04-19T03:19:46;30.67;;;22.67;;
32228;SDS011;18717;48.034;11.186;2023-04-19T03:22:13;30.65;;;21.95;;
32228;SDS011;18717;48.034;11.186;2023-04-19T03:24:42;30.25;;;23.52;;
32228;SDS011;18717;48.034;11.186;2023-04-19T03:27:10;31.13;;;22.70;;
32228;SDS011;18717;48.034;11.186;2023-04-19T03:29:38;34.92;;;23.45;;
32228;SDS011;18717;48.034;11.186;2023-04-19T03:32:06;32.13;;;24.35;;
32228;SDS011;18717;48.034;11.186;2023-04-19T03:34:34;32.28;;;23.73;;
32228;SDS011;18717;48.034;11.186;2023-04-19T03:37:01;35.17;;;23.77;;
32228;SDS011;18717;48.034;11.186;2023-04-19T03:39:29;35.47;;;23.70;;
32228;SDS011;18717;48.034;11.186;2023-04-19T03:41:58;33.88;;;23.67;;
32228;SDS011;18717;48.034;11.186;2023-04-19T03:44:26;29.98;;;23.08;;
32228;SDS011;18717;48.034;11.186;2023-04-19T03:46:54;34.33;;;23.30;;
32228;SDS011;18717;48.034;11.186;2023-04-19T03:49:21;33.38;;;23.50;;
32228;SDS011;18717;48.034;11.186;2023-04-19T03:51:49;34.38;;;24.35;;
32228;SDS011;18717;48.034;11.186;2023-04-19T03:54:17;33.65;;;23.95;;
32228;SDS011;18717;48.034;11.186;2023-04-19T03:56:44;32.33;;;23.25;;
32228;SDS011;18717;48.034;11.186;2023-04-19T03:59:13;33.03;;;24.85;;
32228;SDS011;18717;48.034;11.186;2023-04-19T04:01:41;39.00;;;25.52;;
32228;SDS011;18717;48.034;11.186;2023-04-19T04:04:09;38.20;;;25.10;;
32228;SDS011;18717;48.034;11.186;2023-04-19T04:06:38;36.08;;;24.48;;
32228;SDS011;18717;48.034;11.186;2023-04-19T04:09:05;35.78;;;23.15;;
32228;SDS011;18717;48.034;11.186;2023-04-19T04:11:33;34.67;;;25.15;;
32228;SDS011;18717;48.034;11.186;2023-04-19T04:14:03;32.85;;;23.77;;
32228;SDS011;18717;48.034;11.186;2023-04-19T04:16:32;34.22;;;22.48;;
32228;SDS011;18717;48.034;11.186;2023-04-19T04:19:00;36.45;;;24.08;;
32228;SDS011;18717;48.034;11.186;2023-04-19T04:21:28;34.88;;;22.60;;
32228;SDS011;18717;48.034;11.186;2023-04-19T04:23:55;31.05;;;21.92;;
32228;SDS011;18717;48.034;11.186;2023-04-19T04:26:23;32.38;;;23.45;;
32228;SDS011;18717;48.034;11.186;2023-04-19T04:28:55;31.48;;;23.38;;
32228;SDS011;18717;48.034;11.186;2023-04-19T04:31:23;32.38;;;23.88;;
32228;SDS011;18717;48.034;11.186;2023-04-19T04:33:52;32.00;;;23.52;;
32228;SDS011;18717;48.034;11.186;2023-04-19T04:36:20;31.45;;;21.42;;
32228;SDS011;18717;48.034;11.186;2023-04-19T04:38:48;33.88;;;23.50;;
32228;SDS011;18717;48.034;11.186;2023-04-19T04:41:16;33.78;;;22.52;;
32228;SDS011;18717;48.034;11.186;2023-04-19T04:43:48;30.23;;;23.30;;
32228;SDS011;18717;48.034;11.186;2023-04-19T04:46:36;34.08;;;21.33;;
32228;SDS011;18717;48.034;11.186;2023-04-19T04:49:05;31.77;;;21.52;;
32228;SDS011;18717;48.034;11.186;2023-04-19T04:51:33;31.55;;;22.70;;
32228;SDS011;18717;48.034;11.186;2023-04-19T04:54:02;37.25;;;23.67;;
32228;SDS011;18717;48.034;11.186;2023-04-19T04:56:34;34.58;;;23.15;;
32228;SDS011;18717;48.034;11.186;2023-04-19T04:59:02;35.93;;;23.67;;
32228;SDS011;18717;48.034;11.186;2023-04-19T05:01:30;34.92;;;24.52;;
32228;SDS011;18717;48.034;11.186;2023-04-19T05:03:58;35.97;;;23.88;;
32228;SDS011;18717;48.034;11.186;2023-04-19T05:06:27;34.13;;;23.67;;
32228;SDS011;18717;48.034;11.186;2023-04-19T05:08:55;39.80;;;26.42;;
32228;SDS011;18717;48.034;11.186;2023-04-19T05:11:23;39.60;;;24.92;;
32228;SDS011;18717;48.034;11.186;2023-04-19T05:13:50;38.45;;;23.83;;
32228;SDS011;18717;48.034;11.186;2023-04-19T05:16:18;41.28;;;25.88;;
32228;SDS011;18717;48.034;11.186;2023-04-19T05:18:46;43.90;;;27.17;;
32228;SDS011;18717;48.034;11.186;2023-04-19T05:21:18;41.65;;;26.35;;
32228;SDS011;18717;48.034;11.186;2023-04-19T05:23:48;38.75;;;26.08;;
32228;SDS011;18717;48.034;11.186;2023-04-19T05:26:18;41.53;;;25.52;;
32228;SDS011;18717;48.034;11.186;2023-04-19T05:28:46;41.33;;;26.63;;
32228;SDS011;18717;48.034;11.186;2023-04-19T05:31:14;38.25;;;25.30;;
32228;SDS011;18717;48.034;11.186;2023-04-19T05:33:42;45.35;;;27.05;;
32228;SDS011;18717;48.034;11.186;2023-04-19T05:36:09;45.22;;;28.83;;
32228;SDS011;18717;48.034;11.186;2023-04-19T05:38:37;49.47;;;29.77;;
32228;SDS011;18717;48.034;11.186;2023-04-19T05:41:06;44.13;;;27.90;;
32228;SDS011;18717;48.034;11.186;2023-04-19T05:43:34;46.03;;;28.50;;
32228;SDS011;18717;48.034;11.186;2023-04-19T05:46:01;48.85;;;29.65;;
32228;SDS011;18717;48.034;11.186;2023-04-19T05:48:29;50.88;;;30.10;;
32228;SDS011;18717;48.034;11.186;2023-04-19T05:50:57;53.55;;;31.88;;
32228;SDS011;18717;48.034;11.186;2023-04-19T05:53:25;53.47;;;29.85;;
32228;SDS011;18717;48.034;11.186;2023-04-19T05:55:52;51.30;;;30.60;;
32228;SDS011;18717;48.034;11.186;2023-04-19T05:58:22;54.08;;;30.75;;
32228;SDS011;18717;48.034;11.186;2023-04-19T06:00:50;51.03;;;29.60;;
32228;SDS011;18717;48.034;11.186;2023-04-19T06:03:18;52.40;;;31.70;;
32228;SDS011;18717;48.034;11.186;2023-04-19T06:05:46;52.30;;;30.75;;
32228;SDS011;18717;48.034;11.186;2023-04-19T06:08:13;54.33;;;29.67;;
32228;SDS011;18717;48.034;11.186;2023-04-19T06:10:42;54.88;;;30.42;;
32228;SDS011;18717;48.034;11.186;2023-04-19T06:13:23;51.15;;;29.70;;
32228;SDS011;18717;48.034;11.186;2023-04-19T06:15:51;53.85;;;29.17;;
32228;SDS011;18717;48.034;11.186;2023-04-19T06:18:19;52.00;;;29.00;;
32228;SDS011;18717;48.034;11.186;2023-04-19T06:20:46;51.55;;;31.60;;
32228;SDS011;18717;48.034;11.186;2023-04-19T06:23:14;48.20;;;30.65;;
32228;SDS011;18717;48.034;11.186;2023-04-19T06:25:43;54.65;;;30.80;;
32228;SDS011;18717;48.034;11.186;2023-04-19T06:28:13;57.95;;;32.10;;
32228;SDS011;18717;48.034;11.186;2023-04-19T06:30:42;53.53;;;32.00;;
32228;SDS011;18717;48.034;11.186;2023-04-19T06:33:10;54.08;;;28.83;;
32228;SDS011;18717;48.034;11.186;2023-04-19T06:35:38;47.10;;;28.08;;
32228;SDS011;18717;48.034;11.186;2023-04-19T06:38:06;52.00;;;30.67;;
32228;SDS011;18717;48.034;11.186;2023-04-19T06:40:34;47.60;;;28.10;;
32228;SDS011;18717;48.034;11.186;2023-04-19T06:43:01;53.03;;;31.75;;
32228;SDS011;18717;48.034;11.186;2023-04-19T06:45:31;49.17;;;30.83;;
32228;SDS011;18717;48.034;11.186;2023-04-19T06:48:00;52.95;;;30.88;;
32228;SDS011;18717;48.034;11.186;2023-04-19T06:50:28;51.30;;;32.60;;
32228;SDS011;18717;48.034;11.186;2023-04-19T06:52:56;53.47;;;31.80;;
32228;SDS011;18717;48.034;11.186;2023-04-19T06:55:24;54.20;;;32.67;;
32228;SDS011;18717;48.034;11.186;2023-04-19T06:57:52;51.33;;;29.27;;
32228;SDS011;18717;48.034;11.186;2023-04-19T07:00:20;51.47;;;32.25;;
32228;SDS011;18717;48.034;11.186;2023-04-19T07:02:48;49.08;;;31.30;;
32228;SDS011;18717;48.034;11.186;2023-04-19T07:05:19;49.58;;;29.58;;
32228;SDS011;18717;48.034;11.186;2023-04-19T07:07:46;48.25;;;30.85;;
32228;SDS011;18717;48.034;11.186;2023-04-19T07:10:14;50.25;;;28.65;;
32228;SDS011;18717;48.034;11.186;2023-04-19T07:12:42;49.85;;;30.88;;
32228;SDS011;18717;48.034;11.186;2023-04-19T07:15:10;40.83;;;26.35;;
32228;SDS011;18717;48.034;11.186;2023-04-19T07:17:38;46.58;;;27.00;;
32228;SDS011;18717;48.034;11.186;2023-04-19T07:20:06;49.30;;;28.92;;
32228;SDS011;18717;48.034;11.186;2023-04-19T07:22:36;44.80;;;29.77;;
32228;SDS011;18717;48.034;11.186;2023-04-19T07:25:04;43.10;;;28.23;;
32228;SDS011;18717;48.034;11.186;2023-04-19T07:27:32;41.47;;;27.17;;
32228;SDS011;18717;48.034;11.186;2023-04-19T07:30:00;47.78;;;28.02;;
32228;SDS011;18717;48.034;11.186;2023-04-19T07:32:28;45.67;;;29.38;;
32228;SDS011;18717;48.034;11.186;2023-04-19T07:34:57;46.17;;;27.85;;
32228;SDS011;18717;48.034;11.186;2023-04-19T07:37:24;50.78;;;29.60;;
32228;SDS011;18717;48.034;11.186;2023-04-19T07:39:54;49.80;;;28.95;;
32228;SDS011;18717;48.034;11.186;2023-04-19T07:42:22;43.50;;;29.17;;
32228;SDS011;18717;48.034;11.186;2023-04-19T07:44:51;54.03;;;29.77;;
32228;SDS011;18717;48.034;11.186;2023-04-19T07:47:18;44.53;;;28.85;;
32228;SDS011;18717;48.034;11.186;2023-04-19T07:49:50;50.60;;;27.48;;
32228;SDS011;18717;48.034;11.186;2023-04-19T07:52:18;52.40;;;27.85;;
32228;SDS011;18717;48.034;11.186;2023-04-19T07:54:45;46.65;;;27.25;;
32228;SDS011;18717;48.034;11.186;2023-04-19T07:57:14;42.63;;;27.38;;
32228;SDS011;18717;48.034;11.186;2023-04-19T07:59:42;43.35;;;28.58;;
32228;SDS011;18717;48.034;11.186;2023-04-19T08:02:10;44.72;;;28.58;;
32228;SDS011;18717;48.034;11.186;2023-04-19T08:04:38;46.65;;;28.38;;
32228;SDS011;18717;48.034;11.186;2023-04-19T08:07:06;44.88;;;28.95;;
32228;SDS011;18717;48.034;11.186;2023-04-19T08:09:34;42.42;;;24.70;;
32228;SDS011;18717;48.034;11.186;2023-04-19T08:12:03;45.97;;;27.52;;
32228;SDS011;18717;48.034;11.186;2023-04-19T08:14:32;40.83;;;27.20;;
32228;SDS011;18717;48.034;11.186;2023-04-19T08:17:17;45.95;;;26.70;;
32228;SDS011;18717;48.034;11.186;2023-04-19T08:19:53;42.92;;;26.92;;
32228;SDS011;18717;48.034;11.186;2023-04-19T08:22:21;45.95;;;27.77;;
32228;SDS011;18717;48.034;11.186;2023-04-19T08:24:48;46.47;;;28.23;;
32228;SDS011;18717;48.034;11.186;2023-04-19T08:27:17;45.20;;;26.55;;
32228;SDS011;18717;48.034;11.186;2023-04-19T08:29:46;38.65;;;25.45;;
32228;SDS011;18717;48.034;11.186;2023-04-19T08:32:14;42.85;;;27.67;;
32228;SDS011;18717;48.034;11.186;2023-04-19T08:34:41;40.03;;;26.75;;
32228;SDS011;18717;48.034;11.186;2023-04-19T08:37:09;37.47;;;24.40;;
32228;SDS011;18717;48.034;11.186;2023-04-19T08:39:37;40.58;;;24.30;;
32228;SDS011;18717;48.034;11.186;2023-04-19T08:42:06;39.78;;;26.13;;
32228;SDS011;18717;48.034;11.186;2023-04-19T08:44:56;42.00;;;26.90;;
32228;SDS011;18717;48.034;11.186;2023-04-19T08:47:44;40.83;;;27.15;;
32228;SDS011;18717;48.034;11.186;2023-04-19T08:50:26;42.03;;;26.13;;
32228;SDS011;18717;48.034;11.186;2023-04-19T08:53:06;43.40;;;26.80;;
32228;SDS011;18717;48.034;11.186;2023-04-19T08:55:50;42.13;;;28.25;;
32228;SDS011;18717;48.034;11.186;2023-04-19T08:58:39;46.13;;;29.00;;
32228;SDS011;18717;48.034;11.186;2023-04-19T09:01:11;50.90;;;28.98;;
32228;SDS011;18717;48.034;11.186;2023-04-19T09:03:56;44.22;;;28.15;;
32228;SDS011;18717;48.034;11.186;2023-04-19T09:06:43;42.95;;;27.42;;
32228;SDS011;18717;48.034;11.186;2023-04-19T09:09:14;41.72;;;27.08;;
32228;SDS011;18717;48.034;11.186;2023-04-19T09:12:00;47.72;;;26.70;;
32228;SDS011;18717;48.034;11.186;2023-04-19T09:14:28;42.08;;;26.58;;
32228;SDS011;18717;48.034;11.186;2023-04-19T09:19:46;39.88;;;25.67;;
32228;SDS011;18717;48.034;11.186;2023-04-19T09:22:15;38.97;;;24.02;;
32228;SDS011;18717;48.034;11.186;2023-04-19T09:24:43;41.50;;;26.55;;
32228;SDS011;18717;48.034;11.186;2023-04-19T09:27:31;47.92;;;26.98;;
32228;SDS011;18717;48.034;11.186;2023-04-19T09:30:00;38.40;;;26.50;;
32228;SDS011;18717;48.034;11.186;2023-04-19T09:32:44;41.10;;;24.65;;
32228;SDS011;18717;48.034;11.186;2023-04-19T09:35:13;40.78;;;25.90;;
32228;SDS011;18717;48.034;11.186;2023-04-19T09:37:42;40.28;;;25.05;;
32228;SDS011;18717;48.034;11.186;2023-04-19T09:40:32;38.55;;;24.75;;
32228;SDS011;18717;48.034;11.186;2023-04-19T09:43:00;39.33;;;25.13;;
32228;SDS011;18717;48.034;11.186;2023-04-19T09:45:48;41.22;;;27.45;;
32228;SDS011;18717;48.034;11.186;2023-04-19T09:48:17;39.90;;;26.23;;
32228;SDS011;18717;48.034;11.186;2023-04-19T09:50:51;55.17;;;26.58;;
32228;SDS011;18717;48.034;11.186;2023-04-19T09:53:30;53.90;;;28.02;;
32228;SDS011;18717;48.034;11.186;2023-04-19T09:55:59;42.80;;;28.10;;
32228;SDS011;18717;48.034;11.186;2023-04-19T09:58:30;43.63;;;26.20;;
32228;SDS011;18717;48.034;11.186;2023-04-19T10:01:01;35.80;;;25.80;;
32228;SDS011;18717;48.034;11.186;2023-04-19T10:03:42;42.42;;;26.00;;
32228;SDS011;18717;48.034;11.186;2023-04-19T10:06:13;43.20;;;27.73;;
32228;SDS011;18717;48.034;11.186;2023-04-19T10:09:02;41.88;;;26.45;;
32228;SDS011;18717;48.034;11.186;2023-04-19T10:11:31;44.10;;;27.83;;
32228;SDS011;18717;48.034;11.186;2023-04-19T10:14:04;42.75;;;26.60;;
32228;SDS011;18717;48.034;11.186;2023-04-19T10:16:34;42.42;;;27.33;;
32228;SDS011;18717;48.034;11.186;2023-04-19T10:19:04;39.70;;;26.85;;
32228;SDS011;18717;48.034;11.186;2023-04-19T10:21:35;38.65;;;25.83;;
32228;SDS011;18717;48.034;11.186;2023-04-19T10:24:04;36.05;;;27.00;;
32228;SDS011;18717;48.034;11.186;2023-04-19T10:27:04;44.35;;;26.48;;
32228;SDS011;18717;48.034;11.186;2023-04-19T10:29:53;42.17;;;26.85;;
32228;SDS011;18717;48.034;11.186;2023-04-19T10:32:21;37.90;;;27.60;;
32228;SDS011;18717;48.034;11.186;2023-04-19T10:34:51;39.70;;;26.08;;
32228;SDS011;18717;48.034;11.186;2023-04-19T10:37:24;38.83;;;25.90;;
32228;SDS011;18717;48.034;11.186;2023-04-19T10:42:19;42.70;;;26.83;;
32228;SDS011;18717;48.034;11.186;2023-04-19T10:47:56;34.25;;;25.98;;
32228;SDS011;18717;48.034;11.186;2023-04-19T10:50:25;34.88;;;25.00;;
32228;SDS011;18717;48.034;11.186;2023-04-19T10:52:53;34.03;;;24.83;;
32228;SDS011;18717;48.034;11.186;2023-04-19T10:55:21;31.30;;;24.30;;
32228;SDS011;18717;48.034;11.186;2023-04-19T10:58:02;33.05;;;23.70;;
32228;SDS011;18717;48.034;11.186;2023-04-19T11:00:30;39.93;;;27.37;;
32228;SDS011;18717;48.034;11.186;2023-04-19T11:02:58;27.90;;;22.77;;
32228;SDS011;18717;48.034;11.186;2023-04-19T11:05:28;41.63;;;28.30;;
32228;SDS011;18717;48.034;11.186;2023-04-19T11:07:56;33.90;;;26.05;;
32228;SDS011;18717;48.034;11.186;2023-04-19T11:10:27;30.95;;;24.23;;
32228;SDS011;18717;48.034;11.186;2023-04-19T11:12:56;39.75;;;25.98;;
32228;SDS011;18717;48.034;11.186;2023-04-19T11:15:24;33.80;;;25.20;;
32228;SDS011;18717;48.034;11.186;2023-04-19T11:17:52;36.05;;;26.13;;
32228;SDS011;18717;48.034;11.186;2023-04-19T11:20:38;39.45;;;24.48;;
32228;SDS011;18717;48.034;11.186;2023-04-19T11:25:41;39.28;;;26.83;;
32228;SDS011;18717;48.034;11.186;2023-04-19T11:28:14;44.80;;;28.10;;
32228;SDS011;18717;48.034;11.186;2023-04-19T11:30:42;35.38;;;25.73;;
32228;SDS011;18717;48.034;11.186;2023-04-19T11:33:11;37.58;;;25.73;;
32228;SDS011;18717;48.034;11.186;2023-04-19T11:35:40;30.75;;;23.90;;
32228;SDS011;18717;48.034;11.186;2023-04-19T11:38:11;32.58;;;24.50;;
32228;SDS011;18717;48.034;11.186;2023-04-19T11:40:39;34.15;;;24.38;;
32228;SDS011;18717;48.034;11.186;2023-04-19T11:43:07;34.45;;;23.83;;
32228;SDS011;18717;48.034;11.186;2023-04-19T11:45:36;33.15;;;24.52;;
32228;SDS011;18717;48.034;11.186;2023-04-19T11:48:06;34.67;;;26.80;;
32228;SDS011;18717;48.034;11.186;2023-04-19T11:50:35;34.80;;;25.90;;
32228;SDS011;18717;48.034;11.186;2023-04-19T11:53:12;32.78;;;25.35;;
32228;SDS011;18717;48.034;11.186;2023-04-19T11:55:42;35.25;;;25.25;;
32228;SDS011;18717;48.034;11.186;2023-04-19T11:58:23;36.45;;;25.63;;
32228;SDS011;18717;48.034;11.186;2023-04-19T12:00:56;33.78;;;25.73;;
32228;SDS011;18717;48.034;11.186;2023-04-19T12:03:26;35.90;;;25.63;;
32228;SDS011;18717;48.034;11.186;2023-04-19T12:05:54;33.03;;;24.52;;
32228;SDS011;18717;48.034;11.186;2023-04-19T12:08:31;37.30;;;25.98;;
32228;SDS011;18717;48.034;11.186;2023-04-19T12:11:00;32.30;;;25.45;;
32228;SDS011;18717;48.034;11.186;2023-04-19T12:13:29;30.33;;;25.10;;
32228;SDS011;18717;48.034;11.186;2023-04-19T12:15:57;33.67;;;25.23;;
32228;SDS011;18717;48.034;11.186;2023-04-19T12:18:25;34.63;;;25.63;;
32228;SDS011;18717;48.034;11.186;2023-04-19T12:20:53;27.83;;;23.60;;
32228;SDS011;18717;48.034;11.186;2023-04-19T12:23:21;30.33;;;23.90;;
32228;SDS011;18717;48.034;11.186;2023-04-19T12:25:50;35.13;;;25.02;;
32228;SDS011;18717;48.034;11.186;2023-04-19T12:28:17;30.80;;;23.77;;
32228;SDS011;18717;48.034;11.186;2023-04-19T12:30:45;33.70;;;24.15;;
32228;SDS011;18717;48.034;11.186;2023-04-19T12:33:13;34.47;;;23.90;;
32228;SDS011;18717;48.034;11.186;2023-04-19T12:35:40;31.67;;;24.35;;
32228;SDS011;18717;48.034;11.186;2023-04-19T12:38:10;31.02;;;23.92;;
32228;SDS011;18717;48.034;11.186;2023-04-19T12:40:37;35.60;;;24.50;;
32228;SDS011;18717;48.034;11.186;2023-04-19T12:43:06;32.42;;;24.65;;
32228;SDS011;18717;48.034;11.186;2023-04-19T12:45:34;31.35;;;23.80;;
32228;SDS011;18717;48.034;11.186;2023-04-19T12:48:02;31.05;;;22.63;;
32228;SDS011;18717;48.034;11.186;2023-04-19T12:50:30;28.80;;;23.00;;
32228;SDS011;18717;48.034;11.186;2023-04-19T12:52:57;28.08;;;21.35;;
32228;SDS011;18717;48.034;11.186;2023-04-19T12:55:25;28.73;;;23.33;;
32228;SDS011;18717;48.034;11.186;2023-04-19T12:57:53;33.75;;;23.15;;
32228;SDS011;18717;48.034;11.186;2023-04-19T13:00:22;35.15;;;23.50;;
32228;SDS011;18717;48.034;11.186;2023-04-19T13:02:50;35.60;;;23.85;;
32228;SDS011;18717;48.034;11.186;2023-04-19T13:05:18;29.42;;;23.38;;
32228;SDS011;18717;48.034;11.186;2023-04-19T13:07:46;34.53;;;24.23;;
32228;SDS011;18717;48.034;11.186;2023-04-19T13:10:14;36.08;;;24.65;;
32228;SDS011;18717;48.034;11.186;2023-04-19T13:12:41;34.30;;;24.77;;
32228;SDS011;18717;48.034;11.186;2023-04-19T13:15:09;38.20;;;27.13;;
32228;SDS011;18717;48.034;11.186;2023-04-19T13:17:38;30.05;;;23.27;;
32228;SDS011;18717;48.034;11.186;2023-04-19T13:20:07;31.98;;;22.77;;
32228;SDS011;18717;48.034;11.186;2023-04-19T13:22:35;52.35;;;24.52;;
32228;SDS011;18717;48.034;11.186;2023-04-19T13:25:03;35.50;;;23.80;;
32228;SDS011;18717;48.034;11.186;2023-04-19T13:27:31;35.22;;;23.65;;
32228;SDS011;18717;48.034;11.186;2023-04-19T13:29:59;37.45;;;24.90;;
32228;SDS011;18717;48.034;11.186;2023-04-19T13:32:27;35.58;;;23.80;;
32228;SDS011;18717;48.034;11.186;2023-04-19T13:34:57;34.60;;;23.13;;
32228;SDS011;18717;48.034;11.186;2023-04-19T13:37:24;44.58;;;25.77;;
32228;SDS011;18717;48.034;11.186;2023-04-19T13:39:52;42.80;;;25.67;;
32228;SDS011;18717;48.034;11.186;2023-04-19T13:42:36;34.72;;;23.98;;
32228;SDS011;18717;48.034;11.186;2023-04-19T13:45:04;29.40;;;21.17;;
32228;SDS011;18717;48.034;11.186;2023-04-19T13:47:32;32.05;;;22.13;;
32228;SDS011;18717;48.034;11.186;2023-04-19T13:50:02;28.30;;;20.95;;
32228;SDS011;18717;48.034;11.186;2023-04-19T13:52:30;21.23;;;17.92;;
32228;SDS011;18717;48.034;11.186;2023-04-19T13:54:58;21.10;;;17.48;;
32228;SDS011;18717;48.034;11.186;2023-04-19T13:57:25;20.88;;;17.20;;
32228;SDS011;18717;48.034;11.186;2023-04-19T13:59:53;18.95;;;16.95;;
32228;SDS011;18717;48.034;11.186;2023-04-19T14:02:21;20.13;;;16.50;;
32228;SDS011;18717;48.034;11.186;2023-04-19T14:04:49;20.63;;;17.05;;
32228;SDS011;18717;48.034;11.186;2023-04-19T14:07:18;23.85;;;17.02;;
32228;SDS011;18717;48.034;11.186;2023-04-19T14:09:45;21.85;;;16.90;;
32228;SDS011;18717;48.034;11.186;2023-04-19T14:12:13;16.98;;;15.18;;
32228;SDS011;18717;48.034;11.186;2023-04-19T14:14:41;17.35;;;15.15;;
32228;SDS011;18717;48.034;11.186;2023-04-19T14:17:08;16.38;;;14.88;;
32228;SDS011;18717;48.034;11.186;2023-04-19T14:19:36;16.63;;;14.82;;
32228;SDS011;18717;48.034;11.186;2023-04-19T14:22:04;14.27;;;12.88;;
32228;SDS011;18717;48.034;11.186;2023-04-19T14:24:33;56.67;;;28.08;;
32228;SDS011;18717;48.034;11.186;2023-04-19T14:27:01;16.92;;;15.15;;
32228;SDS011;18717;48.034;11.186;2023-04-19T14:29:36;13.45;;;12.25;;
32228;SDS011;18717;48.034;11.186;2023-04-19T14:32:04;19.20;;;16.83;;
32228;SDS011;18717;48.034;11.186;2023-04-19T14:34:49;14.43;;;13.13;;